Time;durP1;ratioP1;P1;durP2;ratioP2;P2;SDS_P1;SDS_P2;PMS_P1;PMS_P2;Temp;Humidity;BMP_temperature;BMP_pressure;BME280_temperature;BME280_humidity;BME280_pressure;Samples;Min_cycle;Max_cycle;Signal;HPM_P1;HPM_P2
2022/02/20 01:11:07;;;;;;;22.40;11.30;;;;;;;12.09;50.95;101213.59;5982385;23;20108;31
2022/02/20 01:13:53;;;;;;;21.70;11.32;;;;;;;11.83;51.57;101214.00;4848698;29;20059;-71
2022/02/20 01:16:39;;;;;;;19.30;11.55;;;;;;;12.03;51.29;101209.31;4870656;29;20047;-71
2022/02/20 01:19:25;;;;;;;18.52;11.23;;;;;;;12.10;50.76;101215.34;4880931;29;20044;-72
2022/02/20 01:22:11;;;;;;;19.10;11.55;;;;;;;12.35;50.30;101216.66;4867171;29;20025;-72
2022/02/20 01:24:57;;;;;;;21.92;11.25;;;;;;;12.27;50.52;101210.66;4880828;29;20029;-72
2022/02/20 01:27:42;;;;;;;18.77;11.23;;;;;;;12.28;50.31;101217.66;4879536;29;20451;-72
2022/02/20 01:30:28;;;;;;;20.15;11.05;;;;;;;11.99;51.08;101214.63;4881707;29;20032;-72
2022/02/20 01:33:14;;;;;;;21.90;10.95;;;;;;;12.27;50.58;101208.91;4886810;29;20048;-72
2022/02/20 01:36:00;;;;;;;18.48;11.13;;;;;;;12.15;50.70;101206.50;4886566;29;20021;-73
2022/02/20 01:38:46;;;;;;;21.30;11.73;;;;;;;12.47;49.87;101212.09;4887314;29;20108;-73
2022/02/20 01:41:32;;;;;;;17.45;10.55;;;;;;;12.38;49.93;101214.84;4873060;29;20065;-72
2022/02/20 01:44:18;;;;;;;19.25;12.25;;;;;;;12.34;49.92;101215.78;4886775;29;20468;-72
2022/02/20 01:47:13;;;;;;;19.40;11.15;;;;;;;12.09;50.27;101211.81;4886173;29;20475;-72
2022/02/20 01:49:58;;;;;;;19.40;11.43;;;;;;;12.27;50.44;101193.16;4886698;29;20108;-72
2022/02/20 01:52:45;;;;;;;23.33;11.90;;;;;;;12.12;51.34;101197.78;4886172;29;20115;-72
2022/02/20 01:55:32;;;;;;;21.85;13.05;;;;;;;12.52;50.55;101188.31;4886382;29;20045;-72
2022/02/20 01:58:18;;;;;;;29.85;16.58;;;;;;;12.47;50.12;101183.19;4885686;29;20056;-72
2022/02/20 02:01:04;;;;;;;24.13;13.68;;;;;;;12.27;51.38;101189.66;4886239;29;20029;-73
2022/02/20 02:03:50;;;;;;;25.95;13.38;;;;;;;12.10;51.73;101191.69;4885889;29;20053;-74
2022/02/20 02:06:36;;;;;;;23.52;12.45;;;;;;;12.54;50.87;101182.16;4886188;29;20108;-72
2022/02/20 02:09:21;;;;;;;23.92;12.65;;;;;;;12.44;50.75;101177.09;4886320;29;20029;-73
2022/02/20 02:12:08;;;;;;;27.02;12.77;;;;;;;12.41;51.18;101183.25;4886609;29;20060;-73
2022/02/20 02:15:07;;;;;;;22.70;11.90;;;;;;;12.31;51.21;101192.22;4872372;29;20060;-73
2022/02/20 02:17:53;;;;;;;29.20;12.52;;;;;;;12.19;51.96;101192.41;4886114;29;20032;-72
2022/02/20 02:20:39;;;;;;;21.92;11.45;;;;;;;12.16;51.94;101195.09;4886244;29;20119;-72
2022/02/20 02:23:25;;;;;;;20.08;12.00;;;;;;;11.89;52.70;101195.50;4872357;29;20087;-73
2022/02/20 02:26:12;;;;;;;21.45;11.68;;;;;;;11.97;52.62;101200.66;4886804;29;20033;-73
2022/02/20 02:28:58;;;;;;;19.98;11.70;;;;;;;12.14;51.85;101199.47;4872866;29;20479;-72
2022/02/20 02:31:44;;;;;;;21.25;12.13;;;;;;;12.30;51.63;101202.75;4887450;29;20075;-72
2022/02/20 02:34:30;;;;;;;22.52;11.60;;;;;;;12.19;52.47;101191.53;4885759;29;20025;-72
2022/02/20 02:37:16;;;;;;;22.58;11.63;;;;;;;12.02;52.73;101194.44;4885326;29;20040;-73
2022/02/20 02:40:02;;;;;;;20.38;12.00;;;;;;;12.07;52.94;101189.13;4885771;29;20033;-72
2022/02/20 02:42:48;;;;;;;24.80;12.20;;;;;;;12.04;53.76;101192.66;4884411;29;20175;-72
2022/02/20 02:45:34;;;;;;;24.48;13.13;;;;;;;11.74;54.49;101194.88;4882786;29;20064;-73
2022/02/20 02:48:20;;;;;;;25.85;13.23;;;;;;;11.57;55.40;101187.22;4883655;29;20033;-73
2022/02/20 02:51:05;;;;;;;23.33;12.80;;;;;;;11.94;54.40;101198.94;4884948;29;20111;-72
2022/02/20 02:53:52;;;;;;;24.35;12.85;;;;;;;12.26;53.66;101199.28;4883426;29;20477;-73
2022/02/20 02:56:37;;;;;;;24.30;12.80;;;;;;;11.74;55.28;101203.59;4883521;29;20037;-72
2022/02/20 02:59:23;;;;;;;17.27;11.60;;;;;;;11.68;55.35;101214.22;4883315;29;20124;-72
2022/02/20 03:02:09;;;;;;;24.38;11.55;;;;;;;11.52;55.67;101217.91;4882766;29;20039;-72
2022/02/20 03:04:55;;;;;;;25.55;10.70;;;;;;;11.73;56.14;101215.00;4882474;29;20029;-71
2022/02/20 03:07:43;;;;;;;19.42;10.00;;;;;;;11.82;55.26;101206.13;4882306;29;20104;-73
2022/02/20 03:10:29;;;;;;;18.05;9.90;;;;;;;11.69;55.65;101212.47;4882006;29;20032;-73
2022/02/20 03:13:15;;;;;;;16.80;10.00;;;;;;;11.71;55.76;101211.56;4882391;29;20060;-72
2022/02/20 03:16:01;;;;;;;18.15;9.48;;;;;;;11.57;56.82;101228.34;4881811;29;20128;-73
2022/02/20 03:18:47;;;;;;;17.75;10.15;;;;;;;11.25;58.09;101226.09;4882189;29;20506;-73
2022/02/20 03:21:32;;;;;;;16.85;9.32;;;;;;;11.49;57.95;101225.81;4882754;29;20021;-73
2022/02/20 03:24:18;;;;;;;17.15;9.43;;;;;;;11.52;57.66;101236.28;4883226;29;20021;-73
2022/02/20 03:27:04;;;;;;;17.90;9.60;;;;;;;10.71;60.78;101224.09;4882312;29;20043;-72
2022/02/20 03:29:50;;;;;;;17.60;9.73;;;;;;;10.82;61.87;101230.13;4883395;29;20029;-72
2022/02/20 03:32:35;;;;;;;19.63;10.10;;;;;;;10.83;62.08;101234.47;4868930;29;20115;-72
2022/02/20 03:35:21;;;;;;;14.23;9.35;;;;;;;10.74;62.79;101224.09;4881889;29;20032;-72
2022/02/20 03:38:07;;;;;;;14.00;8.30;;;;;;;10.74;63.37;101228.44;4869054;29;20485;-72
2022/02/20 03:40:53;;;;;;;16.50;9.60;;;;;;;10.50;66.67;101234.81;4881872;29;20188;-73
2022/02/20 03:43:39;;;;;;;15.48;9.05;;;;;;;10.33;69.32;101241.91;4883060;29;20120;-73
2022/02/20 03:46:25;;;;;;;20.92;11.82;;;;;;;9.88;74.22;101250.06;4882291;29;20460;-73
2022/02/20 03:49:10;;;;;;;19.70;11.25;;;;;;;9.97;73.83;101250.88;4882404;29;20120;-73
2022/02/20 03:51:56;;;;;;;18.60;10.90;;;;;;;10.01;71.29;101244.75;4881715;29;20458;-72
2022/02/20 03:54:42;;;;;;;21.13;11.10;;;;;;;9.90;70.52;101246.56;4881531;29;20376;-72
2022/02/20 03:57:32;;;;;;;21.30;11.13;;;;;;;10.07;69.43;101255.22;4867789;29;20581;-72
2022/02/20 04:00:20;;;;;;;21.45;12.23;;;;;;;9.48;77.89;101245.91;4882450;29;20519;-71
2022/02/20 04:03:06;;;;;;;25.33;12.70;;;;;;;9.39;79.00;101248.59;4881427;29;20025;-72
2022/02/20 04:05:52;;;;;;;25.42;12.40;;;;;;;9.61;78.07;101268.56;4882814;29;20476;-72
2022/02/20 04:08:38;;;;;;;22.13;12.85;;;;;;;9.49;79.31;101273.84;4868297;29;20120;-72
2022/02/20 04:11:23;;;;;;;22.63;12.73;;;;;;;9.78;76.53;101271.94;4881303;29;20347;-72
2022/02/20 04:14:09;;;;;;;24.65;11.98;;;;;;;9.88;75.13;101278.84;4881830;29;20479;-73
2022/02/20 04:16:55;;;;;;;22.45;12.05;;;;;;;9.56;77.34;101279.03;4881248;29;20025;-73
2022/02/20 04:19:41;;;;;;;23.25;13.32;;;;;;;9.68;77.24;101263.28;4881503;29;20037;-72
2022/02/20 04:22:26;;;;;;;25.13;13.40;;;;;;;9.65;78.40;101254.59;4881731;29;20447;-72
2022/02/20 04:25:13;;;;;;;23.38;12.98;;;;;;;9.61;77.94;101251.09;4867610;29;20415;-73
2022/02/20 04:27:59;;;;;;;22.85;12.82;;;;;;;9.75;76.79;101256.25;4881057;29;20119;-73
2022/02/20 04:30:45;;;;;;;22.67;12.35;;;;;;;9.62;78.16;101249.34;4881688;29;20036;-72
2022/02/20 04:33:30;;;;;;;21.80;12.93;;;;;;;9.19;82.02;101250.41;4881760;29;20025;-73
2022/02/20 04:36:16;;;;;;;25.80;13.68;;;;;;;9.60;81.45;101251.97;4881330;29;20029;-72
2022/02/20 04:39:04;;;;;;;23.60;13.40;;;;;;;9.50;83.61;101257.25;4881886;29;20366;-72
2022/02/20 04:41:49;;;;;;;23.55;13.90;;;;;;;9.23;86.22;101258.25;4868426;29;20045;-72
2022/02/20 04:44:35;;;;;;;30.65;14.40;;;;;;;9.61;83.83;101263.31;4881670;29;20032;-73
2022/02/20 04:47:21;;;;;;;26.65;13.88;;;;;;;9.55;83.31;101269.44;4880477;29;20029;-72
2022/02/20 04:50:07;;;;;;;27.92;14.35;;;;;;;9.58;81.92;101269.44;4880653;29;20092;-72
2022/02/20 04:52:53;;;;;;;30.73;15.70;;;;;;;9.63;81.52;101266.78;4880668;29;20033;-72
2022/02/20 04:55:39;;;;;;;30.35;16.60;;;;;;;9.40;82.11;101266.00;4881005;29;20071;-71
2022/02/20 04:58:24;;;;;;;29.65;16.10;;;;;;;9.71;79.52;101280.69;4881202;29;20065;-73
2022/02/20 05:01:10;;;;;;;33.03;16.38;;;;;;;9.58;80.87;101282.53;4880853;29;20021;-72
2022/02/20 05:03:56;;;;;;;32.60;16.48;;;;;;;9.60;78.76;101292.94;4880496;29;20033;-72
2022/02/20 05:06:41;;;;;;;32.42;16.10;;;;;;;9.80;76.87;101299.84;4880836;29;20433;-73
2022/02/20 05:09:27;;;;;;;28.98;15.50;;;;;;;9.98;74.20;101296.25;4880386;29;20055;-72
2022/02/20 05:12:13;;;;;;;31.75;16.02;;;;;;;9.73;76.04;101292.03;4880644;29;20144;-72
2022/02/20 05:14:59;;;;;;;29.20;15.57;;;;;;;9.93;75.20;101296.28;4881099;29;20025;-73
2022/02/20 05:17:44;;;;;;;32.78;15.80;;;;;;;9.99;73.80;101304.09;4880509;29;20043;-72
2022/02/20 05:20:30;;;;;;;30.17;16.15;;;;;;;9.82;75.32;101299.84;4880351;29;20029;-72
2022/02/20 05:23:16;;;;;;;34.45;16.25;;;;;;;9.90;75.12;101305.91;4879785;29;20025;-72
2022/02/20 05:26:02;;;;;;;31.08;16.25;;;;;;;9.90;75.84;101311.13;4868179;29;20051;-73
2022/02/20 05:28:48;;;;;;;32.47;16.30;;;;;;;9.86;74.54;101317.25;4879776;29;20116;-72
2022/02/20 05:31:33;;;;;;;25.90;14.60;;;;;;;10.02;72.17;101317.16;4880501;29;20039;-72
2022/02/20 05:34:19;;;;;;;43.97;22.55;;;;;;;9.91;72.60;101325.94;4879655;29;20040;-72
2022/02/20 05:37:07;;;;;;;38.30;19.33;;;;;;;10.08;69.80;101334.63;4880904;29;20068;-73
2022/02/20 05:39:53;;;;;;;37.38;20.20;;;;;;;10.23;68.96;101339.78;4880625;29;20033;-72
2022/02/20 05:42:39;;;;;;;37.72;20.55;;;;;;;10.37;68.84;101342.31;4881254;29;20048;-72
2022/02/20 05:45:26;;;;;;;29.67;17.65;;;;;;;10.18;70.99;101352.03;4879920;29;20025;-72
2022/02/20 05:48:11;;;;;;;33.17;16.58;;;;;;;10.32;68.74;101351.94;4880107;29;20033;-72
2022/02/20 05:50:57;;;;;;;28.30;16.08;;;;;;;10.53;67.28;101354.41;4880204;29;20029;-73
2022/02/20 05:53:43;;;;;;;32.75;16.25;;;;;;;10.58;67.01;101343.03;4880968;29;20021;-71
2022/02/20 05:56:29;;;;;;;111.47;43.97;;;;;;;10.30;69.57;101344.09;4880525;29;20071;-71
2022/02/20 05:59:14;;;;;;;69.53;32.00;;;;;;;10.36;68.79;101337.94;4880541;29;20185;-72
2022/02/20 06:02:00;;;;;;;55.90;26.15;;;;;;;10.44;68.22;101333.53;4879535;29;20068;-72
2022/02/20 06:04:46;;;;;;;27.80;14.40;;;;;;;10.19;68.16;101330.19;4879639;29;20035;-73
2022/02/20 06:07:32;;;;;;;32.70;14.73;;;;;;;10.22;68.45;101330.19;4879969;29;20075;-73
2022/02/20 06:10:18;;;;;;;24.80;14.07;;;;;;;10.51;67.53;101335.19;4880297;29;20055;-72
2022/02/20 06:13:04;;;;;;;27.98;14.70;;;;;;;10.20;69.04;101344.16;4879799;29;20474;-72
2022/02/20 06:15:50;;;;;;;27.38;13.90;;;;;;;10.28;68.58;101351.06;4880159;29;20043;-73
2022/02/20 06:18:35;;;;;;;29.90;14.05;;;;;;;10.70;65.91;101335.06;4883992;29;20033;-73
2022/02/20 06:21:21;;;;;;;27.00;14.50;;;;;;;10.17;68.27;101339.81;4883854;29;20477;-72
2022/02/20 06:24:07;;;;;;;24.10;12.57;;;;;;;9.88;70.02;101342.53;4883425;29;20370;-72
2022/02/20 06:26:53;;;;;;;22.55;13.02;;;;;;;10.30;68.12;101349.34;4883437;29;20160;-73
2022/02/20 06:29:38;;;;;;;26.23;12.52;;;;;;;10.51;67.42;101354.44;4883563;29;20374;-73
2022/02/20 06:32:24;;;;;;;28.65;12.55;;;;;;;10.92;64.90;101357.59;4884391;29;20037;-73
2022/02/20 06:35:10;;;;;;;21.08;11.88;;;;;;;11.01;63.71;101354.88;4883005;29;20025;-72
2022/02/20 06:37:56;;;;;;;27.17;12.20;;;;;;;11.04;64.02;101370.59;4883121;29;20064;-73
2022/02/20 06:40:41;;;;;;;23.85;11.48;;;;;;;10.67;65.27;101373.50;4882678;29;20100;-73
2022/02/20 06:43:27;;;;;;;25.25;12.70;;;;;;;10.46;67.16;101371.94;4883958;29;20029;-74
2022/02/20 06:46:13;;;;;;;23.48;12.35;;;;;;;10.62;67.78;101370.06;4883085;29;20044;-71
2022/02/20 06:48:59;;;;;;;27.92;12.98;;;;;;;11.08;64.91;101381.91;4883883;29;20343;-74
2022/02/20 06:51:45;;;;;;;26.85;14.35;;;;;;;10.74;65.66;101380.44;4883036;29;20032;-74
2022/02/20 06:54:31;;;;;;;26.77;14.95;;;;;;;11.28;63.54;101387.84;4882594;29;20398;-72
2022/02/20 06:57:17;;;;;;;34.10;16.73;;;;;;;11.23;63.99;101385.28;4869020;29;20036;-74
2022/02/20 07:00:10;;;;;;;38.28;18.05;;;;;;;10.90;64.96;101388.19;4883838;29;20058;-73
2022/02/20 07:02:55;;;;;;;27.75;15.48;;;;;;;10.87;64.26;101393.47;4869219;29;20096;-73
2022/02/20 07:05:41;;;;;;;27.67;14.48;;;;;;;11.07;63.56;101388.91;4869237;29;20033;-73
2022/02/20 07:08:27;;;;;;;27.77;17.48;;;;;;;11.40;67.39;101388.59;4870400;29;20482;-73
2022/02/20 07:11:13;;;;;;;35.58;17.42;;;;;;;11.12;69.11;101371.38;4883062;29;20076;-74
2022/02/20 07:13:58;;;;;;;32.88;16.73;;;;;;;11.33;68.53;101365.91;4869629;29;20349;-73
2022/02/20 07:16:44;;;;;;;31.20;15.00;;;;;;;11.68;67.12;101360.31;4882667;29;20529;-73
2022/02/20 07:19:30;;;;;;;29.25;15.65;;;;;;;11.71;66.75;101357.66;4882818;29;20068;-72
2022/02/20 07:22:16;;;;;;;27.65;15.73;;;;;;;11.15;71.75;101358.25;4881852;29;20075;-73
2022/02/20 07:25:04;;;;;;;30.42;16.85;;;;;;;10.93;73.56;101353.22;4883330;29;20064;-74
2022/02/20 07:27:53;;;;;;;28.80;15.85;;;;;;;10.75;73.75;101361.22;4881842;29;20111;-73
2022/02/20 07:30:39;;;;;;;29.30;15.43;;;;;;;10.36;77.16;101359.75;4882289;29;20033;-72
2022/02/20 07:33:25;;;;;;;28.95;15.40;;;;;;;10.96;73.81;101364.53;4869209;29;20079;-73
2022/02/20 07:36:11;;;;;;;32.13;16.50;;;;;;;10.97;69.63;101373.28;4869396;29;20021;-73
2022/02/20 07:38:56;;;;;;;30.23;16.02;;;;;;;10.98;71.03;101361.91;4869818;29;20029;-74
2022/02/20 07:41:42;;;;;;;33.20;16.13;;;;;;;11.25;70.49;101359.88;4882454;29;20032;-73
2022/02/20 07:44:28;;;;;;;32.45;17.35;;;;;;;11.20;70.73;101372.19;4868497;29;20037;-72
2022/02/20 07:47:15;;;;;;;34.05;17.95;;;;;;;11.49;68.08;101366.66;4882175;29;20040;-72
2022/02/20 07:50:01;;;;;;;33.10;17.00;;;;;;;11.38;67.98;101352.75;4882306;29;20089;-73
2022/02/20 07:52:47;;;;;;;32.63;16.95;;;;;;;11.19;67.52;101369.56;4881295;29;20041;-72
2022/02/20 07:55:33;;;;;;;30.10;17.08;;;;;;;11.23;66.51;101355.53;4882056;29;20052;-73
2022/02/20 07:58:20;;;;;;;29.33;17.08;;;;;;;10.96;68.77;101351.44;4881545;29;20041;-73
2022/02/20 08:01:06;;;;;;;31.80;16.77;;;;;;;11.70;65.30;101334.94;4882119;29;20037;-73
2022/02/20 08:03:51;;;;;;;35.70;17.70;;;;;;;11.82;63.55;101333.00;4881541;29;20535;-74
2022/02/20 08:06:37;;;;;;;29.85;17.50;;;;;;;11.93;63.50;101320.63;4867963;29;20046;-74
2022/02/20 08:09:23;;;;;;;32.35;16.83;;;;;;;10.94;67.48;101313.88;4881939;29;20368;-73
2022/02/20 08:12:09;;;;;;;30.13;17.33;;;;;;;11.13;68.44;101314.56;4881929;29;20087;-73
2022/02/20 08:14:55;;;;;;;25.45;15.95;;;;;;;11.21;66.14;101313.59;4881534;29;20060;-74
2022/02/20 08:17:43;;;;;;;31.73;16.48;;;;;;;12.05;63.38;101325.69;4881569;29;20040;-72
2022/02/20 08:20:30;;;;;;;31.50;18.73;;;;;;;12.00;62.76;101337.16;4868473;29;20431;-72
2022/02/20 08:23:20;;;;;;;36.20;19.17;;;;;;;11.80;62.96;101341.78;4880905;29;20037;-72
2022/02/20 08:26:06;;;;;;;37.33;18.70;;;;;;;11.56;62.39;101345.56;4880968;29;20029;-73
2022/02/20 08:28:52;;;;;;;35.90;17.77;;;;;;;11.84;61.23;101349.63;4880808;29;20105;-72
2022/02/20 08:31:38;;;;;;;29.48;17.38;;;;;;;11.92;60.57;101346.88;4881377;29;20379;-73
2022/02/20 08:34:24;;;;;;;29.30;15.13;;;;;;;11.60;61.20;101346.38;4867148;29;20033;-73
2022/02/20 08:37:09;;;;;;;26.02;15.23;;;;;;;12.05;58.89;101335.34;4880771;29;20021;-73
2022/02/20 08:39:55;;;;;;;27.08;14.50;;;;;;;12.11;58.64;101338.75;4881102;29;20051;-73
2022/02/20 08:42:41;;;;;;;29.90;15.68;;;;;;;12.54;58.15;101325.88;4881536;29;20447;-73
2022/02/20 08:45:27;;;;;;;29.70;15.88;;;;;;;12.39;59.02;101315.56;4881430;29;20116;-73
2022/02/20 08:48:14;;;;;;;29.50;15.25;;;;;;;12.45;58.60;101324.22;4881104;29;20519;-73
2022/02/20 08:51:00;;;;;;;24.65;14.25;;;;;;;12.30;58.82;101306.06;4881369;29;20041;-74
2022/02/20 08:53:47;;;;;;;24.33;13.68;;;;;;;12.02;59.50;101312.59;4867570;29;20029;-74
2022/02/20 08:56:33;;;;;;;26.27;14.85;;;;;;;12.34;59.17;101299.03;4881306;29;20041;-73
2022/02/20 08:59:19;;;;;;;21.65;12.95;;;;;;;11.99;59.84;101288.16;4880546;29;20025;-73
2022/02/20 09:02:05;;;;;;;20.83;12.82;;;;;;;12.30;59.65;101278.94;4881120;29;20101;-73
2022/02/20 09:04:51;;;;;;;25.67;14.30;;;;;;;12.15;59.41;101269.53;4880731;29;20049;-74
2022/02/20 09:07:38;;;;;;;23.38;13.27;;;;;;;12.31;60.05;101268.41;4880495;29;20115;-73
2022/02/20 09:10:24;;;;;;;26.90;14.55;;;;;;;12.60;58.91;101258.28;4879835;29;20028;-72
2022/02/20 09:13:10;;;;;;;26.30;15.43;;;;;;;12.48;59.76;101252.34;4867825;29;20045;-72
2022/02/20 09:15:56;;;;;;;25.83;15.75;;;;;;;12.44;59.22;101253.28;4880637;29;20150;-72
2022/02/20 09:18:42;;;;;;;29.52;15.38;;;;;;;13.01;57.77;101247.91;4881160;29;20072;-73
2022/02/20 09:21:31;;;;;;;31.20;16.45;;;;;;;13.06;58.51;101261.84;4880768;29;20047;-73
2022/02/20 09:24:16;;;;;;;29.25;15.65;;;;;;;13.62;57.32;101255.44;4867058;29;20467;-73
2022/02/20 09:27:02;;;;;;;27.67;14.98;;;;;;;13.96;56.33;101261.72;4880672;29;20041;-73
2022/02/20 09:29:48;;;;;;;25.80;14.43;;;;;;;12.60;60.30;101263.53;4880704;29;20036;-71
2022/02/20 09:32:34;;;;;;;24.05;13.95;;;;;;;13.19;60.58;101255.44;4880330;29;20033;-71
2022/02/20 09:35:22;;;;;;;21.17;12.57;;;;;;;13.31;59.90;101265.72;4880361;29;20017;-73
2022/02/20 09:38:07;;;;;;;23.13;12.95;;;;;;;13.58;59.04;101261.66;4881341;29;20037;-73
2022/02/20 09:40:55;;;;;;;24.70;13.65;;;;;;;13.78;57.83;101267.38;4880863;29;20033;-73
2022/02/20 09:43:41;;;;;;;26.50;13.60;;;;;;;13.84;57.83;101269.88;4880950;29;20192;-72
2022/02/20 09:46:28;;;;;;;20.10;13.40;;;;;;;13.80;57.96;101270.84;4880005;29;20033;-73
2022/02/20 09:49:14;;;;;;;20.70;12.88;;;;;;;13.84;57.27;101264.63;4867083;29;20428;-73
2022/02/20 09:52:00;;;;;;;24.65;13.18;;;;;;;13.58;57.71;101262.53;4882178;29;20203;-73
2022/02/20 09:54:45;;;;;;;23.40;13.05;;;;;;;13.89;57.37;101260.09;4884579;29;20021;-74
2022/02/20 09:57:31;;;;;;;20.55;12.20;;;;;;;14.12;56.22;101252.56;4883735;29;20040;-73
2022/02/20 10:00:17;;;;;;;20.35;12.45;;;;;;;14.60;54.87;101243.47;4883835;29;20331;-73
2022/02/20 10:03:03;;;;;;;19.85;12.52;;;;;;;14.45;54.26;101247.38;4871395;29;20493;-72
2022/02/20 10:05:52;;;;;;;20.13;12.73;;;;;;;14.04;55.33;101243.97;4870377;29;20486;-72
2022/02/20 10:08:44;;;;;;;20.00;12.90;;;;;;;14.00;55.66;101240.53;4883599;29;20044;-72
2022/02/20 10:11:31;;;;;;;22.60;12.52;;;;;;;13.75;55.80;101252.50;4883415;29;20065;-72
2022/02/20 10:14:20;;;;;;;25.55;12.68;;;;;;;13.58;56.90;101246.75;4882773;29;20045;-72
2022/02/20 10:17:17;;;;;;;16.60;11.88;;;;;;;13.71;57.76;101244.72;4883158;29;20037;-73
2022/02/20 10:20:04;;;;;;;21.90;11.95;;;;;;;13.89;56.17;101244.28;4883677;29;20071;-73
2022/02/20 10:22:51;;;;;;;22.33;11.95;;;;;;;14.02;56.69;101241.34;4869624;29;20035;-73
2022/02/20 10:25:36;;;;;;;20.77;12.55;;;;;;;14.58;54.53;101238.25;4883352;29;20120;-72
2022/02/20 10:28:22;;;;;;;22.10;11.75;;;;;;;14.16;55.26;101239.25;4883172;29;20088;-72
2022/02/20 10:31:08;;;;;;;23.58;11.80;;;;;;;14.49;54.46;101235.84;4883575;29;20024;-72
2022/02/20 10:34:05;;;;;;;20.75;12.20;;;;;;;14.67;54.26;101234.53;4869860;29;20060;-72
2022/02/20 10:37:01;;;;;;;19.75;12.02;;;;;;;14.43;54.38;101251.81;4883759;29;20370;-76
2022/02/20 10:39:47;;;;;;;19.08;11.40;;;;;;;14.60;53.79;101232.94;4870929;29;20139;-72
2022/02/20 10:42:37;;;;;;;19.38;10.93;;;;;;;14.36;54.02;101237.03;4870851;29;20042;-72
2022/02/20 10:45:33;;;;;;;21.30;11.15;;;;;;;14.37;54.98;101236.16;4882891;29;20100;-70
2022/02/20 10:48:19;;;;;;;22.00;10.55;;;;;;;14.40;54.74;101235.22;4882387;29;20029;-70
2022/02/20 10:51:05;;;;;;;19.27;11.02;;;;;;;14.49;54.01;101227.94;4882759;29;20371;-70
2022/02/20 10:53:51;;;;;;;21.42;11.27;;;;;;;14.64;53.51;101232.78;4883909;29;20025;-73
2022/02/20 10:56:44;;;;;;;19.20;10.95;;;;;;;14.61;52.92;101226.75;4883222;29;20451;-70
2022/02/20 10:59:56;;;;;;;22.65;12.07;;;;;;;14.96;52.17;101220.53;4882583;29;20072;-71
2022/02/20 11:02:43;;;;;;;19.33;11.38;;;;;;;15.05;51.67;101215.88;4881810;29;20029;-70
2022/02/20 11:05:29;;;;;;;16.92;11.27;;;;;;;15.10;51.83;101213.97;4882007;29;20043;-72
2022/02/20 11:08:19;;;;;;;17.50;10.38;;;;;;;15.10;52.06;101219.25;4882036;29;20039;-70
2022/02/20 11:11:36;;;;;;;17.23;10.10;;;;;;;15.39;51.36;101219.31;4869104;29;20029;-71
2022/02/20 11:14:17;;;;;;;16.63;10.40;;;;;;;15.19;51.23;101205.78;4845316;29;20486;-71
2022/02/20 11:17:05;;;;;;;18.40;10.10;;;;;;;15.35;50.51;101203.63;4844980;29;20041;-70
2022/02/20 11:19:55;;;;;;;17.25;10.52;;;;;;;15.82;49.51;101200.38;4845065;29;20037;-69
2022/02/20 11:22:50;;;;;;;18.95;10.45;;;;;;;15.91;49.04;101181.63;4857693;29;20041;-71
2022/02/20 11:25:38;;;;;;;18.35;10.60;;;;;;;15.85;48.81;101171.22;4844615;29;20037;-70
2022/02/20 11:28:24;;;;;;;18.67;10.80;;;;;;;15.93;48.90;101169.22;4844810;29;20084;-70
2022/02/20 11:31:10;;;;;;;21.85;10.55;;;;;;;15.56;49.05;101166.00;4845456;29;20125;-70
2022/02/20 11:33:57;;;;;;;18.27;9.93;;;;;;;15.98;48.86;101165.50;4857455;29;20041;-70
2022/02/20 11:36:54;;;;;;;17.23;10.45;;;;;;;15.61;49.39;101161.44;4858520;29;20030;-71
2022/02/20 11:40:03;;;;;;;19.23;10.80;;;;;;;15.74;49.46;101149.56;4844994;29;20033;-72
2022/02/20 11:43:10;;;;;;;17.75;10.15;;;;;;;15.78;49.20;101148.56;4857559;29;20444;-71
2022/02/20 11:46:05;;;;;;;13.93;9.50;;;;;;;15.40;50.01;101146.25;4844461;29;20041;-70
2022/02/20 11:49:03;;;;;;;17.55;10.05;;;;;;;15.70;48.84;101140.88;4845237;29;20030;-71
2022/02/20 11:52:05;;;;;;;15.27;9.20;;;;;;;16.24;47.92;101147.00;4857068;29;20034;-71
2022/02/20 11:54:55;;;;;;;17.25;10.43;;;;;;;15.95;48.27;101143.63;4845023;29;20068;-71
2022/02/20 11:57:41;;;;;;;17.92;10.38;;;;;;;15.64;49.65;101143.72;4856914;29;20034;-71
2022/02/20 12:00:27;;;;;;;17.15;10.70;;;;;;;16.17;48.55;101140.22;4857278;29;20301;-70
2022/02/20 12:03:19;;;;;;;25.35;11.35;;;;;;;16.26;48.81;101145.19;4844065;29;20375;-70
2022/02/20 12:06:20;;;;;;;23.23;10.55;;;;;;;16.34;47.83;101135.22;4844199;29;20034;-70
2022/02/20 12:09:22;;;;;;;14.80;10.30;;;;;;;16.44;47.36;101130.50;4857129;29;20038;-70
2022/02/20 12:12:33;;;;;;;19.48;10.20;;;;;;;16.24;47.60;101122.34;4859496;29;20382;-69
2022/02/20 12:15:34;;;;;;;18.20;10.80;;;;;;;16.08;47.73;101111.41;4867782;29;20044;-70
2022/02/20 12:18:20;;;;;;;17.50;10.60;;;;;;;15.36;48.56;101111.16;4881389;29;20033;-71
2022/02/20 12:21:08;;;;;;;18.70;10.35;;;;;;;15.31;49.29;101104.25;4881927;29;20481;-71
2022/02/20 12:23:55;;;;;;;19.02;10.48;;;;;;;15.53;49.48;101095.66;4881474;29;20033;-71
2022/02/20 12:26:42;;;;;;;17.42;10.63;;;;;;;15.66;48.30;101104.03;4881550;29;20037;-70
2022/02/20 12:29:40;;;;;;;17.60;10.50;;;;;;;16.06;48.10;101093.88;4880865;29;20100;-70
2022/02/20 12:32:30;;;;;;;17.90;11.10;;;;;;;15.81;47.95;101098.25;4881189;29;20043;-70
2022/02/20 12:35:18;;;;;;;24.20;11.90;;;;;;;15.89;47.88;101090.94;4880735;29;20475;-71
2022/02/20 12:38:11;;;;;;;20.13;11.25;;;;;;;16.38;47.10;101097.16;4880923;29;20458;-70
2022/02/20 12:40:57;;;;;;;18.13;11.38;;;;;;;16.43;47.00;101094.41;4881150;29;20036;-70
2022/02/20 12:43:54;;;;;;;18.90;11.02;;;;;;;16.31;46.74;101097.44;4868274;29;20040;-70
2022/02/20 12:46:40;;;;;;;22.55;12.70;;;;;;;16.70;46.10;101096.91;4879956;29;20575;-70
2022/02/20 12:49:25;;;;;;;23.08;12.60;;;;;;;16.81;45.48;101104.44;4880659;29;20044;-71
2022/02/20 12:52:11;;;;;;;25.27;12.02;;;;;;;15.84;46.22;101095.53;4880496;29;20067;-71
2022/02/20 12:54:57;;;;;;;21.73;11.82;;;;;;;16.83;44.69;101098.19;4866899;29;20092;-71
2022/02/20 12:57:44;;;;;;;20.08;11.27;;;;;;;16.94;44.54;101100.44;4880406;29;20043;-71
2022/02/20 13:00:35;;;;;;;19.75;11.77;;;;;;;16.66;44.71;101105.88;4880418;29;20143;-71
2022/02/20 13:03:25;;;;;;;19.40;11.55;;;;;;;17.32;43.80;101102.50;4880501;29;20115;-71
2022/02/20 13:06:11;;;;;;;19.42;12.10;;;;;;;16.80;44.19;101103.56;4881374;29;20033;-71
2022/02/20 13:08:59;;;;;;;18.80;11.82;;;;;;;16.36;45.41;101087.56;4867173;29;20029;-71
2022/02/20 13:11:45;;;;;;;20.42;12.52;;;;;;;16.63;45.43;101084.81;4880320;29;20057;-72
2022/02/20 13:14:31;;;;;;;24.35;13.82;;;;;;;16.74;44.49;101072.06;4867302;29;20116;-70
2022/02/20 13:17:17;;;;;;;23.27;13.50;;;;;;;16.65;44.66;101080.34;4880305;29;20494;-71
2022/02/20 13:20:03;;;;;;;20.48;12.43;;;;;;;16.57;44.98;101079.75;4866747;29;20037;-71
2022/02/20 13:22:49;;;;;;;19.48;12.90;;;;;;;16.74;43.91;101097.66;4880665;29;20454;-70
2022/02/20 13:25:34;;;;;;;23.20;13.73;;;;;;;16.50;43.90;101087.94;4880957;29;20044;-70
2022/02/20 13:28:26;;;;;;;21.58;13.60;;;;;;;17.05;43.26;101088.53;4879837;29;20020;-71
2022/02/20 13:31:15;;;;;;;25.17;13.63;;;;;;;16.31;44.30;101087.72;4880188;29;20056;-72
2022/02/20 13:34:01;;;;;;;20.50;13.48;;;;;;;16.20;44.92;101086.38;4880089;29;20510;-72
2022/02/20 13:36:47;;;;;;;20.17;12.93;;;;;;;16.57;44.52;101092.13;4880262;29;20439;-71
2022/02/20 13:39:32;;;;;;;23.02;13.23;;;;;;;16.19;45.64;101090.78;4880592;29;20029;-70
2022/02/20 13:42:18;;;;;;;24.35;13.45;;;;;;;15.88;45.84;101099.81;4880247;29;20029;-71
2022/02/20 13:45:05;;;;;;;24.25;13.65;;;;;;;15.95;45.10;101107.47;4879701;29;20067;-71
2022/02/20 13:47:50;;;;;;;20.88;12.90;;;;;;;15.91;45.07;101118.19;4866358;29;20032;-71
2022/02/20 13:50:36;;;;;;;22.05;12.98;;;;;;;15.49;45.72;101124.84;4880683;29;20052;-71
2022/02/20 13:53:22;;;;;;;24.55;13.70;;;;;;;15.26;46.37;101127.31;4879605;29;20036;-70